Time;durP1;ratioP1;P1;durP2;ratioP2;P2;SDS_P1;SDS_P2;PMS_P1;PMS_P2;Temp;Humidity;BMP_temperature;BMP_pressure;BME280_temperature;BME280_humidity;BME280_pressure;Samples;Min_cycle;Max_cycle;Signal;HPM_P1;HPM_P2
2021/03/22 00:00:50;;;;;;;17.17;6.80;;;;;;;-1.41;84.38;99507.20;253662;1108;117141;-64
2021/03/22 00:05:54;;;;;;;22.15;9.55;;;;;;;-1.41;83.80;99514.22;254107;1108;115533;-63
2021/03/22 00:10:58;;;;;;;14.53;8.10;;;;;;;-1.42;83.53;99523.05;253795;1108;115927;-64
2021/03/22 00:16:07;;;;;;;20.85;10.88;;;;;;;-1.44;83.12;99525.83;254090;1108;116003;-64
2021/03/22 00:21:13;;;;;;;18.55;9.33;;;;;;;-1.45;83.35;99532.03;254060;1108;116647;-64
2021/03/22 00:26:17;;;;;;;21.00;10.15;;;;;;;-1.46;83.74;99521.73;253729;1108;117386;-63
2021/03/22 00:31:20;;;;;;;19.80;7.80;;;;;;;-1.46;82.95;99521.73;252148;1108;116424;-65
2021/03/22 00:36:24;;;;;;;20.15;9.68;;;;;;;-1.48;82.93;99523.69;253094;1108;118511;-61
2021/03/22 00:41:31;;;;;;;18.32;8.28;;;;;;;-1.51;82.80;99524.02;252804;1108;117596;-62
2021/03/22 00:46:35;;;;;;;15.50;8.55;;;;;;;-1.59;82.24;99527.46;251353;1109;117726;-62
2021/03/22 00:51:41;;;;;;;12.10;7.93;;;;;;;-1.65;82.24;99522.06;253090;1108;115572;-61
2021/03/22 00:56:44;;;;;;;18.85;8.43;;;;;;;-1.73;83.07;99521.06;252168;1108;115537;-64
2021/03/22 01:01:48;;;;;;;17.87;8.48;;;;;;;-1.80;83.65;99517.45;251889;1108;117074;-64
2021/03/22 01:06:51;;;;;;;13.38;7.90;;;;;;;-1.84;83.85;99520.57;252669;1108;116225;-61
2021/03/22 01:11:54;;;;;;;17.85;10.75;;;;;;;-1.86;83.88;99515.50;251619;1108;115763;-64
2021/03/22 01:16:58;;;;;;;20.32;9.33;;;;;;;-1.90;83.68;99522.02;251630;1109;116840;-65
2021/03/22 01:22:03;;;;;;;22.85;11.60;;;;;;;-1.94;84.36;99517.27;251963;1108;116758;-66
2021/03/22 01:27:08;;;;;;;25.70;11.20;;;;;;;-1.97;84.06;99521.02;251140;1109;115832;-66
2021/03/22 01:32:12;;;;;;;28.98;10.68;;;;;;;-2.06;83.19;99517.56;252411;1109;116008;-64
2021/03/22 01:37:17;;;;;;;19.32;10.80;;;;;;;-2.14;83.43;99514.13;252827;1109;115950;-64
2021/03/22 01:42:46;;;;;;;23.55;11.22;;;;;;;-2.20;83.55;99518.19;252815;1107;115588;-62
2021/03/22 01:47:51;;;;;;;22.00;12.20;;;;;;;-2.31;82.58;99522.86;251667;1109;116506;-62
2021/03/22 01:52:56;;;;;;;23.15;10.25;;;;;;;-2.32;82.54;99526.45;252132;1108;116378;-61
2021/03/22 01:58:00;;;;;;;21.40;10.05;;;;;;;-2.43;82.89;99528.36;253286;1108;116037;-63
2021/03/22 02:03:07;;;;;;;22.50;9.23;;;;;;;-2.56;82.97;99530.59;253268;1108;116141;-62
2021/03/22 02:08:13;;;;;;;;;;;;;;;-2.60;83.30;99536.28;252436;1108;115127;-63
2021/03/22 02:13:22;;;;;;;21.97;7.60;;;;;;;-2.71;82.82;99527.73;254673;1108;102812;-62
2021/03/22 02:18:37;;;;;;;19.35;8.13;;;;;;;-2.76;83.11;99531.80;254021;1108;115335;-65
2021/03/22 02:23:56;;;;;;;23.20;8.45;;;;;;;-2.82;82.94;99535.02;253768;1108;115498;-64
2021/03/22 02:29:12;;;;;;;22.48;9.60;;;;;;;-2.88;82.25;99525.20;253515;1107;114860;-65
2021/03/22 02:34:29;;;;;;;17.45;9.68;;;;;;;-2.99;82.79;99533.27;252400;1109;115791;-68
2021/03/22 02:40:05;;;;;;;19.75;7.75;;;;;;;-3.09;83.07;99539.42;252917;1108;138438;-65
2021/03/22 02:45:09;;;;;;;19.87;9.10;;;;;;;-3.19;82.67;99540.47;252819;1107;116352;-67
2021/03/22 02:50:19;;;;;;;19.87;6.87;;;;;;;-3.33;80.05;99539.20;252107;1108;117784;-63
2021/03/22 02:55:47;;;;;;;16.77;8.53;;;;;;;-3.47;82.56;99544.97;252603;1108;116449;-67
2021/03/22 03:01:03;;;;;;;20.33;8.07;;;;;;;-3.58;83.16;99550.39;252336;1108;114857;-62
2021/03/22 03:06:08;;;;;;;23.83;7.75;;;;;;;-3.67;82.55;99564.33;252280;1108;115554;-65
2021/03/22 03:11:13;;;;;;;15.25;8.68;;;;;;;-3.80;82.60;99564.67;251545;1108;115133;-65
2021/03/22 03:16:16;;;;;;;21.95;9.15;;;;;;;-3.90;82.53;99569.94;252216;1108;114943;-63
2021/03/22 03:21:19;;;;;;;18.37;10.03;;;;;;;-4.03;81.56;99577.30;252141;1108;114921;-63
2021/03/22 03:26:23;;;;;;;21.42;9.45;;;;;;;-4.10;81.74;99576.23;251243;1109;116128;-64
2021/03/22 03:31:26;;;;;;;20.60;8.15;;;;;;;-4.24;81.54;99582.72;252488;1108;116218;-62
2021/03/22 03:36:29;;;;;;;23.07;9.55;;;;;;;-4.31;82.01;99586.06;250930;1109;115473;-66
2021/03/22 03:41:36;;;;;;;23.98;8.50;;;;;;;-4.45;82.45;99582.13;251876;1108;115930;-64
2021/03/22 03:46:40;;;;;;;15.20;8.50;;;;;;;-4.56;84.53;99580.52;252376;1108;114831;-65
2021/03/22 03:51:43;;;;;;;12.10;6.55;;;;;;;-4.67;83.27;99582.48;252073;1108;116344;-63
2021/03/22 03:56:47;;;;;;;13.05;7.22;;;;;;;-4.74;84.20;99574.42;252342;1108;115762;-66
2021/03/22 04:01:51;;;;;;;14.43;6.73;;;;;;;-4.84;83.90;99576.22;253043;1107;115513;-61
2021/03/22 04:06:55;;;;;;;15.57;10.03;;;;;;;-4.88;83.17;99580.05;252506;1108;114947;-62
2021/03/22 04:11:58;;;;;;;15.58;9.23;;;;;;;-4.89;83.21;99597.44;252282;1108;115585;-63
2021/03/22 04:17:01;;;;;;;22.37;10.48;;;;;;;-4.87;84.15;99592.09;253133;1109;116089;-64
2021/03/22 04:22:05;;;;;;;15.78;9.15;;;;;;;-4.91;82.37;99585.56;253884;1108;114860;-63
2021/03/22 04:27:09;;;;;;;19.40;9.63;;;;;;;-4.91;84.45;99588.16;253868;1109;116412;-65
2021/03/22 04:32:12;;;;;;;17.27;10.75;;;;;;;-4.86;83.61;99599.75;252086;1108;115056;-62
2021/03/22 04:37:16;;;;;;;18.67;9.53;;;;;;;-4.73;84.42;99598.64;253274;1108;115467;-63
2021/03/22 04:42:20;;;;;;;20.23;10.23;;;;;;;-4.63;83.98;99608.08;252731;1108;116829;-65
2021/03/22 04:47:23;;;;;;;20.05;8.40;;;;;;;-4.57;84.70;99617.07;252658;1108;115551;-64
2021/03/22 04:52:26;;;;;;;24.43;10.70;;;;;;;-4.50;84.17;99621.58;251705;1108;115473;-64
2021/03/22 04:57:33;;;;;;;28.10;13.28;;;;;;;-4.45;83.66;99628.96;252685;1108;115119;-63
2021/03/22 05:02:37;;;;;;;27.95;14.65;;;;;;;-4.39;83.76;99637.98;252451;1108;115781;-64
2021/03/22 05:07:41;;;;;;;34.13;15.93;;;;;;;-4.29;85.19;99634.41;250946;1108;115624;-63
2021/03/22 05:12:44;;;;;;;47.27;23.97;;;;;;;-4.19;84.76;99635.17;252510;1108;115505;-63
2021/03/22 05:17:50;;;;;;;53.80;27.40;;;;;;;-4.09;85.60;99642.95;251531;1109;116731;-64
2021/03/22 05:22:54;;;;;;;46.23;26.55;;;;;;;-3.93;84.67;99643.13;251634;1107;115718;-64
2021/03/22 05:27:58;;;;;;;33.05;19.92;;;;;;;-3.86;85.75;99636.39;251816;1108;116146;-65
2021/03/22 05:33:06;;;;;;;46.03;22.30;;;;;;;-3.70;86.28;99635.77;251589;1107;115885;-65
2021/03/22 05:38:11;;;;;;;45.70;21.87;;;;;;;-3.59;85.40;99643.36;251940;1108;117769;-65
2021/03/22 05:43:32;;;;;;;45.30;23.80;;;;;;;-3.36;85.70;99637.75;252369;1108;117541;-63
2021/03/22 05:48:55;;;;;;;36.77;20.87;;;;;;;-3.10;85.22;99649.08;252872;1107;116704;-62
2021/03/22 05:54:19;;;;;;;35.78;18.85;;;;;;;-2.82;84.68;99649.80;252409;1108;118717;-65
2021/03/22 05:59:48;;;;;;;30.85;17.25;;;;;;;-2.67;83.59;99656.09;251928;1108;117403;-62
2021/03/22 06:04:54;;;;;;;39.47;19.03;;;;;;;-2.39;84.09;99664.60;253028;1107;117497;-62
2021/03/22 06:10:20;;;;;;;28.02;15.25;;;;;;;-2.08;83.83;99672.78;252549;1108;115102;-67
2021/03/22 06:15:37;;;;;;;32.90;15.90;;;;;;;-1.80;83.63;99678.63;253876;1107;116100;-66
2021/03/22 06:20:42;;;;;;;29.35;15.65;;;;;;;-1.45;81.74;99681.05;254100;1108;115377;-68
2021/03/22 06:25:50;;;;;;;38.63;15.58;;;;;;;-1.10;80.56;99685.22;253793;1107;115049;-66
2021/03/22 06:31:12;;;;;;;24.27;13.45;;;;;;;-0.77;79.49;99695.73;253793;1107;116555;-66
2021/03/22 06:36:18;;;;;;;18.07;11.38;;;;;;;-0.61;78.56;99689.69;252983;1108;115260;-64
2021/03/22 06:41:28;;;;;;;19.48;13.65;;;;;;;-0.47;78.54;99684.59;253955;1108;115738;-64
2021/03/22 06:46:31;;;;;;;34.88;20.57;;;;;;;-0.38;79.56;99704.56;252300;1108;115951;-70
2021/03/22 06:51:35;;;;;;;33.00;19.87;;;;;;;-0.23;79.08;99702.07;252719;1108;115398;-67
2021/03/22 06:56:40;;;;;;;39.35;20.45;;;;;;;-0.08;79.08;99703.05;252617;1108;118881;-65
2021/03/22 07:01:45;;;;;;;32.42;20.62;;;;;;;-0.01;78.35;99711.87;252707;1107;116404;-65
2021/03/22 07:07:10;;;;;;;34.60;18.00;;;;;;;0.05;78.47;99712.17;252719;1108;115854;-66
2021/03/22 07:12:26;;;;;;;30.00;15.05;;;;;;;0.44;78.43;99718.28;251354;1108;115407;-68
2021/03/22 07:17:30;;;;;;;21.80;12.20;;;;;;;1.01;77.27;99718.80;251466;1108;115351;-65
2021/03/22 07:22:35;;;;;;;22.67;13.30;;;;;;;1.50;75.53;99726.36;252136;1109;116423;-69
2021/03/22 07:27:48;;;;;;;17.75;8.30;;;;;;;1.90;74.31;99727.79;251420;1109;117923;-66
2021/03/22 07:33:06;;;;;;;30.77;17.83;;;;;;;2.50;73.36;99739.16;252505;1108;116668;-66
2021/03/22 07:38:32;;;;;;;19.15;12.45;;;;;;;2.91;71.68;99747.37;251884;1108;116561;-67
2021/03/22 07:44:17;;;;;;;17.52;9.45;;;;;;;3.09;70.50;99749.58;252904;1107;116345;-63
2021/03/22 07:49:29;;;;;;;12.30;7.20;;;;;;;3.49;68.84;99756.89;251166;1109;115677;-68
2021/03/22 07:54:41;;;;;;;25.52;14.68;;;;;;;3.72;70.40;99752.23;252284;1109;115564;-67
2021/03/22 07:59:51;;;;;;;18.45;10.85;;;;;;;4.04;68.59;99750.05;252188;1108;115604;-67
2021/03/22 08:05:30;;;;;;;20.17;13.20;;;;;;;4.23;67.91;99759.13;252599;1106;116187;-67
2021/03/22 08:11:01;;;;;;;17.87;10.60;;;;;;;4.40;67.52;99758.61;252753;1107;116245;-69
2021/03/22 08:16:46;;;;;;;28.00;14.30;;;;;;;4.38;66.50;99763.27;251113;1107;116806;-64
2021/03/22 08:22:26;;;;;;;20.75;12.75;;;;;;;4.50;64.25;99755.63;253168;1108;115946;-65
2021/03/22 08:27:33;;;;;;;9.48;5.40;;;;;;;4.62;62.85;99758.52;254102;1107;115902;-68
2021/03/22 08:33:00;;;;;;;7.85;3.77;;;;;;;4.66;60.64;99754.48;253536;1108;115331;-67
2021/03/22 08:38:16;;;;;;;12.53;7.62;;;;;;;4.65;62.26;99766.05;253156;1107;115056;-67
2021/03/22 08:43:53;;;;;;;16.00;8.63;;;;;;;4.68;61.19;99770.95;253229;1107;116640;-66
2021/03/22 08:48:59;;;;;;;13.95;8.03;;;;;;;4.93;61.91;99781.82;252365;1108;115521;-64
2021/03/22 08:54:03;;;;;;;16.40;7.93;;;;;;;5.05;60.86;99785.54;252292;1108;115376;-70
2021/03/22 08:59:10;;;;;;;9.93;5.20;;;;;;;4.98;59.68;99790.79;251820;1108;116209;-68
2021/03/22 09:04:30;;;;;;;16.55;8.53;;;;;;;5.58;57.90;99773.27;251549;1108;116754;-69
2021/03/22 09:15:39;;;;;;;13.43;5.28;;;;;;;6.27;54.37;99780.84;257573;1105;104191;-68
2021/03/22 09:20:45;;;;;;;11.10;4.92;;;;;;;6.61;52.80;99781.59;251414;1105;114774;-68
2021/03/22 09:25:56;;;;;;;8.95;4.17;;;;;;;6.60;51.66;99779.97;251587;1105;117507;-68
2021/03/22 09:31:15;;;;;;;10.50;5.00;;;;;;;6.51;52.44;99795.27;252316;1104;115763;-67
2021/03/22 09:36:42;;;;;;;6.58;4.28;;;;;;;6.24;52.40;99799.78;251768;1105;114559;-64
2021/03/22 09:42:05;;;;;;;16.07;4.35;;;;;;;5.92;53.37;99803.24;252570;1105;114862;-69
2021/03/22 09:47:14;;;;;;;11.08;5.58;;;;;;;5.79;54.65;99800.58;251955;1105;114883;-67
2021/03/22 09:52:32;;;;;;;8.58;4.60;;;;;;;5.86;53.84;99788.96;251456;1105;115313;-63
2021/03/22 09:57:36;;;;;;;;;;;;;;;5.97;51.74;99787.58;251712;1105;115087;-63
2021/03/22 10:02:50;;;;;;;9.73;3.27;;;;;;;5.92;50.48;99784.72;253524;1105;104241;-64
2021/03/22 10:08:06;;;;;;;10.58;7.35;;;;;;;6.07;53.12;99785.35;252318;1104;114645;-69
2021/03/22 10:13:19;;;;;;;17.17;11.75;;;;;;;5.93;51.00;99789.81;252213;1105;116044;-65
2021/03/22 10:18:42;;;;;;;6.87;3.17;;;;;;;5.86;50.22;99782.85;252931;1105;116106;-66
2021/03/22 10:23:54;;;;;;;4.97;2.55;;;;;;;5.93;49.20;99786.36;252570;1105;116034;-67
2021/03/22 10:29:22;;;;;;;4.62;2.72;;;;;;;6.22;45.03;99777.99;253837;1104;116598;-65
2021/03/22 10:35:01;;;;;;;5.78;3.33;;;;;;;6.17;49.65;99779.63;254778;1105;115334;-66
2021/03/22 10:40:15;;;;;;;3.85;1.87;;;;;;;6.26;45.77;99784.51;254910;1104;116647;-66
2021/03/22 10:45:24;;;;;;;2.25;1.27;;;;;;;6.46;44.99;99788.95;251624;1103;115886;-66
2021/03/22 10:50:30;;;;;;;3.77;2.30;;;;;;;6.69;47.41;99792.80;253868;1104;115741;-66
2021/03/22 10:55:34;;;;;;;1.90;1.50;;;;;;;6.35;45.66;99796.52;252386;1105;116270;-66
2021/03/22 11:00:42;;;;;;;2.70;2.50;;;;;;;6.64;44.55;99791.78;251150;1105;116121;-67
2021/03/22 11:05:59;;;;;;;4.05;2.02;;;;;;;6.48;45.12;99793.02;252467;1105;115501;-66
2021/03/22 11:11:06;;;;;;;1.07;0.90;;;;;;;6.63;43.29;99783.02;251554;1105;115903;-67
2021/03/22 11:16:11;;;;;;;5.22;2.50;;;;;;;6.97;45.95;99787.20;251830;1105;115696;-65
2021/03/22 11:21:19;;;;;;;3.85;2.10;;;;;;;7.14;43.11;99784.05;252401;1105;115241;-66
2021/03/22 11:26:27;;;;;;;1.47;1.37;;;;;;;6.94;41.52;99787.61;251798;1104;116143;-65
2021/03/22 11:31:36;;;;;;;;;;;;;;;7.07;41.05;99792.03;251672;1105;114915;-67
2021/03/22 11:36:44;;;;;;;2.80;1.57;;;;;;;6.80;41.27;99785.20;253787;1105;104236;-67
2021/03/22 11:42:16;;;;;;;3.07;1.60;;;;;;;6.93;43.60;99782.52;251701;1105;117238;-66
2021/03/22 11:47:39;;;;;;;2.85;1.37;;;;;;;7.36;42.26;99782.70;252445;1105;116476;-66
2021/03/22 11:52:47;;;;;;;5.70;1.55;;;;;;;7.29;41.34;99785.42;252289;1105;117081;-66
2021/03/22 11:57:51;;;;;;;2.95;1.67;;;;;;;7.29;42.55;99777.47;252408;1105;115434;-66
2021/03/22 12:03:01;;;;;;;3.70;1.52;;;;;;;7.58;42.44;99762.80;252109;1105;115738;-66
2021/03/22 12:08:31;;;;;;;2.80;1.70;;;;;;;7.40;39.59;99771.47;251548;1105;114817;-66
2021/03/22 12:13:35;;;;;;;2.05;1.40;;;;;;;7.18;39.70;99775.47;251694;1105;114650;-66
2021/03/22 12:18:39;;;;;;;5.87;1.82;;;;;;;6.99;40.57;99779.84;251676;1105;117712;-66
2021/03/22 12:23:43;;;;;;;7.10;3.92;;;;;;;6.67;42.68;99778.13;254081;1104;115215;-66
2021/03/22 12:28:55;;;;;;;3.98;1.25;;;;;;;6.50;41.71;99785.69;252202;1104;115427;-67
2021/03/22 12:34:01;;;;;;;4.60;1.92;;;;;;;6.41;42.11;99786.95;251756;1105;115034;-65
2021/03/22 12:39:36;;;;;;;2.95;1.82;;;;;;;6.20;41.65;99790.62;255171;1104;115265;-66
2021/03/22 12:44:39;;;;;;;2.58;1.50;;;;;;;5.84;42.42;99806.86;255169;1104;114813;-67
2021/03/22 12:49:43;;;;;;;2.65;1.30;;;;;;;5.71;45.57;99799.74;255035;1104;114352;-66
2021/03/22 12:54:45;;;;;;;3.22;1.35;;;;;;;5.51;46.08;99809.45;253973;1105;115207;-67
2021/03/22 12:59:50;;;;;;;2.50;2.00;;;;;;;5.59;44.86;99803.17;253905;1104;114530;-67
2021/03/22 13:04:54;;;;;;;2.37;1.23;;;;;;;5.69;44.83;99788.55;252696;1105;115308;-67
2021/03/22 13:09:59;;;;;;;1.12;1.10;;;;;;;5.90;44.58;99786.76;252876;1104;114744;-66
2021/03/22 13:15:04;;;;;;;2.65;1.67;;;;;;;5.77;45.28;99794.67;252213;1105;114198;-67
2021/03/22 13:20:09;;;;;;;1.85;1.40;;;;;;;5.67;45.60;99801.16;252553;1105;114552;-66
2021/03/22 13:25:12;;;;;;;2.65;1.75;;;;;;;5.56;46.30;99799.09;252979;1105;114436;-66
2021/03/22 13:30:22;;;;;;;3.30;1.40;;;;;;;5.61;48.02;99790.56;251664;1105;114871;-66
2021/03/22 13:35:26;;;;;;;4.95;1.47;;;;;;;5.91;44.28;99786.55;252594;1105;114938;-66
2021/03/22 13:40:30;;;;;;;3.47;2.10;;;;;;;6.06;46.32;99789.83;251682;1104;115801;-66
2021/03/22 13:45:33;;;;;;;2.33;1.77;;;;;;;6.27;45.91;99780.84;252268;1105;115056;-66
2021/03/22 13:50:37;;;;;;;4.37;2.70;;;;;;;6.18;45.41;99782.06;251949;1105;115050;-67
2021/03/22 13:55:41;;;;;;;3.87;2.58;;;;;;;5.97;45.69;99792.88;251708;1105;116151;-66
2021/03/22 14:00:45;;;;;;;2.17;1.72;;;;;;;5.89;46.54;99801.00;251815;1105;115547;-66
2021/03/22 14:05:49;;;;;;;4.33;1.52;;;;;;;5.67;45.72;99806.45;252568;1105;114580;-66
2021/03/22 14:10:53;;;;;;;1.98;1.07;;;;;;;5.58;44.93;99810.28;252730;1105;114762;-66
2021/03/22 14:15:57;;;;;;;4.47;2.02;;;;;;;5.88;43.46;99802.80;251783;1105;115685;-66
2021/03/22 14:21:00;;;;;;;4.90;1.95;;;;;;;6.14;42.89;99799.37;252916;1104;115617;-66
2021/03/22 14:26:03;;;;;;;1.47;0.72;;;;;;;6.28;40.79;99790.41;252034;1105;114507;-66
2021/03/22 14:31:13;;;;;;;1.00;0.60;;;;;;;6.07;37.84;99786.16;252729;1105;114304;-66
2021/03/22 14:36:16;;;;;;;0.98;0.80;;;;;;;6.29;38.96;99780.64;252970;1105;115305;-66
2021/03/22 14:41:19;;;;;;;4.85;1.50;;;;;;;6.38;39.31;99788.17;253541;1105;137068;-66
2021/03/22 14:46:23;;;;;;;2.87;2.10;;;;;;;6.30;39.08;99796.32;252256;1105;116832;-67
2021/03/22 14:51:27;;;;;;;1.07;0.68;;;;;;;6.02;39.21;99798.38;254745;1105;116662;-67
2021/03/22 14:56:29;;;;;;;3.65;1.12;;;;;;;6.04;40.46;99801.63;254728;1104;114951;-67
2021/03/22 15:01:41;;;;;;;1.22;0.93;;;;;;;5.89;42.62;99799.17;254994;1104;115276;-66
2021/03/22 15:06:45;;;;;;;2.42;1.25;;;;;;;5.65;41.50;99808.48;253437;1105;114408;-66
2021/03/22 15:11:50;;;;;;;2.00;1.50;;;;;;;5.73;42.40;99800.36;251774;1105;115650;-67
2021/03/22 15:16:55;;;;;;;1.42;1.02;;;;;;;5.70;41.69;99803.41;252738;1105;115946;-66
2021/03/22 15:21:59;;;;;;;2.40;0.80;;;;;;;5.83;42.11;99807.06;252215;1105;116121;-66
2021/03/22 15:27:03;;;;;;;1.30;1.02;;;;;;;5.87;40.65;99803.00;253184;1104;117430;-66
2021/03/22 15:32:07;;;;;;;5.62;2.98;;;;;;;5.85;42.25;99812.97;252692;1105;115899;-66
2021/03/22 15:37:11;;;;;;;0.78;0.68;;;;;;;5.65;39.77;99816.41;252635;1105;114330;-66
2021/03/22 15:42:16;;;;;;;0.88;0.85;;;;;;;5.43;40.92;99819.42;251937;1105;114269;-66
2021/03/22 15:47:20;;;;;;;0.72;0.72;;;;;;;5.24;42.60;99829.70;251711;1105;115692;-67
2021/03/22 15:52:23;;;;;;;0.57;0.57;;;;;;;5.04;43.43;99831.47;251550;1104;115543;-66
2021/03/22 15:57:27;;;;;;;0.90;0.90;;;;;;;4.92;44.31;99830.38;251573;1105;115839;-66
2021/03/22 16:02:33;;;;;;;2.75;1.65;;;;;;;4.81;44.11;99829.12;251758;1105;114695;-66
2021/03/22 16:07:38;;;;;;;2.20;1.82;;;;;;;4.68;45.29;99832.49;252578;1104;114704;-66
2021/03/22 16:12:42;;;;;;;4.17;1.65;;;;;;;4.64;45.17;99831.24;251528;1105;114490;-66
2021/03/22 16:17:46;;;;;;;2.85;0.98;;;;;;;4.53;45.08;99839.72;251459;1104;114729;-67
2021/03/22 16:22:49;;;;;;;5.30;1.67;;;;;;;4.48;45.35;99846.58;252751;1105;114205;-67
2021/03/22 16:27:53;;;;;;;1.95;1.37;;;;;;;4.36;46.41;99843.64;251664;1105;114348;-66
2021/03/22 16:33:00;;;;;;;1.50;1.13;;;;;;;4.27;46.36;99848.27;253207;1104;115057;-67
2021/03/22 16:38:10;;;;;;;8.68;4.28;;;;;;;4.19;46.67;99844.94;252782;1104;115932;-66
2021/03/22 16:43:16;;;;;;;3.42;2.00;;;;;;;4.09;47.81;99850.53;251696;1105;115387;-66
2021/03/22 16:48:22;;;;;;;3.58;1.92;;;;;;;3.94;47.82;99860.36;251753;1105;121719;-66
2021/03/22 16:53:27;;;;;;;8.50;5.15;;;;;;;3.78;48.78;99871.95;255106;1104;115305;-65
2021/03/22 16:58:31;;;;;;;6.92;5.08;;;;;;;3.65;50.38;99885.83;254808;1105;115369;-66
2021/03/22 17:03:35;;;;;;;6.12;4.45;;;;;;;3.51;51.55;99886.67;255168;1105;114618;-66
2021/03/22 17:08:39;;;;;;;5.95;4.55;;;;;;;3.33;54.04;99899.44;252638;1105;115725;-65
2021/03/22 17:13:43;;;;;;;9.38;4.60;;;;;;;3.09;55.04;99891.80;254369;1105;115213;-64
2021/03/22 17:18:47;;;;;;;8.25;4.25;;;;;;;2.91;53.38;99894.81;253203;1105;115362;-65
2021/03/22 17:23:57;;;;;;;4.62;2.98;;;;;;;2.74;52.98;99903.89;253674;1105;116946;-65
2021/03/22 17:29:00;;;;;;;5.97;3.63;;;;;;;2.54;55.19;99914.91;251577;1105;115520;-66
2021/03/22 17:34:04;;;;;;;4.22;3.40;;;;;;;2.24;61.01;99908.76;253049;1105;115266;-65
2021/03/22 17:39:08;;;;;;;5.42;2.83;;;;;;;1.96;60.61;99918.17;252493;1105;116096;-65
2021/03/22 17:44:12;;;;;;;4.87;3.40;;;;;;;1.75;61.61;99936.39;251379;1105;115421;-65
2021/03/22 17:49:15;;;;;;;5.97;2.73;;;;;;;1.55;63.77;99938.60;251768;1105;115057;-64
2021/03/22 17:54:18;;;;;;;6.87;2.92;;;;;;;1.38;65.01;99956.25;252482;1105;116010;-65
2021/03/22 17:59:21;;;;;;;5.12;2.47;;;;;;;1.21;64.47;99962.56;252020;1105;115197;-64
2021/03/22 18:04:25;;;;;;;4.62;3.08;;;;;;;1.08;66.58;99959.63;251666;1105;115037;-64
2021/03/22 18:09:27;;;;;;;9.15;4.70;;;;;;;1.02;67.92;99963.74;252113;1104;114777;-65
2021/03/22 18:14:30;;;;;;;11.20;6.42;;;;;;;0.90;66.66;99965.92;251734;1105;114751;-65
2021/03/22 18:19:33;;;;;;;8.95;6.45;;;;;;;0.70;67.73;99971.66;251454;1105;116581;-65
2021/03/22 18:24:37;;;;;;;13.17;4.63;;;;;;;0.59;69.36;99971.03;251446;1103;115251;-65
2021/03/22 18:29:40;;;;;;;8.33;4.30;;;;;;;0.55;71.04;99966.28;253067;1104;115381;-66
2021/03/22 18:34:43;;;;;;;10.32;3.85;;;;;;;0.47;71.00;99969.72;253215;1105;115022;-68
2021/03/22 18:39:46;;;;;;;5.93;3.80;;;;;;;0.42;72.32;99972.00;252702;1104;115076;-66
2021/03/22 18:44:49;;;;;;;9.40;3.30;;;;;;;0.29;70.95;99976.93;252296;1104;114340;-65
2021/03/22 18:49:55;;;;;;;5.80;3.75;;;;;;;0.23;73.15;99982.81;253642;1105;114523;-64
2021/03/22 18:54:59;;;;;;;10.32;4.60;;;;;;;0.23;72.07;99986.26;251805;1104;115596;-65
2021/03/22 19:00:06;;;;;;;9.08;3.52;;;;;;;0.26;73.15;99995.61;252784;1105;116233;-65
2021/03/22 19:05:10;;;;;;;4.47;2.90;;;;;;;0.22;74.54;99996.91;254379;1105;115774;-65
2021/03/22 19:10:17;;;;;;;3.55;2.33;;;;;;;0.12;73.54;99997.05;254758;1104;114637;-67
2021/03/22 19:15:22;;;;;;;5.92;3.27;;;;;;;0.10;73.56;100004.25;253417;1104;114705;-67
2021/03/22 19:20:26;;;;;;;24.75;4.25;;;;;;;0.11;73.22;100005.89;252064;1105;114683;-65
2021/03/22 19:25:30;;;;;;;9.37;4.53;;;;;;;0.06;73.16;100008.16;253131;1104;115185;-65
2021/03/22 19:30:33;;;;;;;7.03;4.17;;;;;;;-0.03;73.21;100015.20;251963;1105;114917;-64
2021/03/22 19:35:38;;;;;;;7.17;3.77;;;;;;;-0.12;73.40;100020.58;251406;1105;114995;-65
2021/03/22 19:40:43;;;;;;;10.43;5.90;;;;;;;-0.18;75.48;100021.20;252907;1105;115325;-65
2021/03/22 19:45:49;;;;;;;17.55;7.85;;;;;;;-0.18;75.00;100015.97;252318;1105;116056;-64
2021/03/22 19:50:54;;;;;;;21.63;9.57;;;;;;;-0.15;73.63;100016.47;252190;1105;114959;-64
2021/03/22 19:55:59;;;;;;;38.07;16.27;;;;;;;-0.16;75.28;100020.06;251733;1105;115016;-65
2021/03/22 20:01:04;;;;;;;32.90;14.43;;;;;;;-0.23;74.71;100023.47;252305;1104;115483;-65
2021/03/22 20:06:08;;;;;;;22.93;11.15;;;;;;;-0.27;76.74;100019.52;251975;1105;116110;-65
2021/03/22 20:11:12;;;;;;;34.00;14.07;;;;;;;-0.28;75.86;100026.56;252364;1105;117039;-65
2021/03/22 20:16:19;;;;;;;22.40;9.83;;;;;;;-0.28;76.25;100026.56;252033;1105;116089;-64
2021/03/22 20:21:30;;;;;;;17.62;10.45;;;;;;;-0.30;76.12;100027.69;251551;1104;114916;-65
2021/03/22 20:26:34;;;;;;;20.82;11.12;;;;;;;-0.29;77.39;100034.58;252272;1104;115247;-65
2021/03/22 20:31:37;;;;;;;15.10;8.60;;;;;;;-0.28;78.03;100031.80;252823;1105;116135;-65
2021/03/22 20:36:40;;;;;;;19.45;8.83;;;;;;;-0.24;79.29;100035.75;251811;1105;117026;-64
2021/03/22 20:41:44;;;;;;;38.05;16.77;;;;;;;-0.22;79.03;100041.66;252106;1105;114958;-64
2021/03/22 20:46:48;;;;;;;54.05;21.55;;;;;;;-0.18;77.38;100039.54;252555;1105;116339;-64
2021/03/22 20:51:51;;;;;;;81.32;34.10;;;;;;;-0.12;77.60;100037.12;252762;1105;117289;-64
2021/03/22 20:56:56;;;;;;;55.58;21.10;;;;;;;-0.14;77.47;100038.25;253611;1105;115720;-64
2021/03/22 21:02:01;;;;;;;61.48;26.40;;;;;;;-0.12;77.36;100038.91;254507;1104;116224;-64
2021/03/22 21:07:04;;;;;;;65.52;23.50;;;;;;;-0.15;78.06;100032.19;254652;1104;116374;-67
2021/03/22 21:12:07;;;;;;;69.32;26.35;;;;;;;-0.14;77.37;100033.83;254232;1104;116189;-66
2021/03/22 21:17:10;;;;;;;61.05;22.27;;;;;;;-0.09;77.13;100038.60;254819;1104;115587;-66
2021/03/22 21:22:14;;;;;;;59.27;23.95;;;;;;;-0.10;77.59;100039.58;254934;1105;114890;-69
2021/03/22 21:27:19;;;;;;;58.15;24.45;;;;;;;-0.05;77.53;100043.38;254951;1104;115468;-65
2021/03/22 21:32:22;;;;;;;48.68;21.55;;;;;;;-0.08;77.66;100048.92;254583;1105;115295;-67
2021/03/22 21:37:26;;;;;;;56.90;22.85;;;;;;;-0.07;77.28;100047.95;254042;1104;115773;-66
2021/03/22 21:42:30;;;;;;;75.03;29.82;;;;;;;-0.08;78.08;100048.92;251940;1105;116576;-62
2021/03/22 21:47:34;;;;;;;56.35;23.60;;;;;;;-0.05;79.87;100050.41;252867;1105;116543;-64
2021/03/22 21:52:38;;;;;;;65.30;23.30;;;;;;;-0.02;77.40;100047.48;253761;1105;114929;-65
2021/03/22 21:57:42;;;;;;;38.95;19.50;;;;;;;-0.05;77.70;100043.38;253480;1104;115677;-64
2021/03/22 22:02:46;;;;;;;52.05;21.52;;;;;;;0.00;77.68;100048.93;252707;1105;115090;-64
2021/03/22 22:07:50;;;;;;;36.90;14.75;;;;;;;-0.05;78.23;100047.80;252452;1105;114937;-64
2021/03/22 22:12:55;;;;;;;47.40;18.05;;;;;;;-0.08;78.75;100042.86;251776;1105;115841;-66
2021/03/22 22:18:00;;;;;;;44.18;18.95;;;;;;;-0.10;79.00;100040.40;251576;1105;116086;-65
2021/03/22 22:23:05;;;;;;;55.28;22.32;;;;;;;-0.14;78.17;100046.94;252429;1105;115004;-65
2021/03/22 22:28:09;;;;;;;80.32;31.80;;;;;;;-0.12;79.39;100039.73;251899;1105;116169;-65
2021/03/22 22:33:13;;;;;;;70.90;30.05;;;;;;;-0.10;79.30;100050.06;251642;1105;115064;-65
2021/03/22 22:38:18;;;;;;;52.73;26.65;;;;;;;-0.13;78.88;100048.58;252968;1105;115814;-64
2021/03/22 22:43:25;;;;;;;59.00;24.45;;;;;;;-0.07;78.39;100049.75;251820;1105;115922;-62
2021/03/22 22:48:28;;;;;;;42.37;20.33;;;;;;;-0.06;79.24;100056.63;252410;1105;115662;-65
2021/03/22 22:53:32;;;;;;;42.73;20.17;;;;;;;0.01;76.96;100044.52;251551;1105;115478;-63
2021/03/22 22:58:35;;;;;;;41.10;18.85;;;;;;;0.09;75.98;100054.20;253845;1105;114996;-65
2021/03/22 23:03:40;;;;;;;34.98;17.80;;;;;;;0.16;74.41;100058.66;252839;1104;116517;-65
2021/03/22 23:08:44;;;;;;;34.75;16.40;;;;;;;0.26;74.48;100054.11;253057;1104;116220;-63
2021/03/22 23:13:48;;;;;;;33.75;15.15;;;;;;;0.34;73.83;100056.72;253019;1105;115303;-63
2021/03/22 23:18:53;;;;;;;41.67;15.23;;;;;;;0.42;73.56;100049.86;252111;1105;116451;-63
2021/03/22 23:24:04;;;;;;;32.03;13.85;;;;;;;0.44;72.73;100048.72;253996;1104;114918;-64
2021/03/22 23:29:19;;;;;;;33.78;14.23;;;;;;;0.45;73.89;100050.36;253550;1104;115689;-63
2021/03/22 23:34:23;;;;;;;29.65;16.32;;;;;;;0.48;73.32;100055.28;254774;1104;115619;-63